createdAt,value
2019-01-10T00:03:00.656Z,85.52
2019-01-10T00:06:04.963Z,85.52
2019-01-10T00:09:09.224Z,85.72
2019-01-10T00:12:15.186Z,85.80
2019-01-10T00:15:19.251Z,85.38
2019-01-10T00:18:23.161Z,85.44
2019-01-10T00:21:27.033Z,85.68
2019-01-10T00:24:30.954Z,85.60
2019-01-10T00:27:34.966Z,85.51
2019-01-10T00:30:38.963Z,85.17
2019-01-10T00:33:42.895Z,85.27
2019-01-10T00:36:46.837Z,85.30
2019-01-10T00:39:50.685Z,85.61
2019-01-10T00:42:54.613Z,85.42
2019-01-10T00:45:58.577Z,85.28
2019-01-10T00:49:02.727Z,85.41
2019-01-10T00:52:06.644Z,85.53
2019-01-10T00:55:10.741Z,85.23
2019-01-10T00:58:14.742Z,85.23
2019-01-10T01:01:18.601Z,85.20
2019-01-10T01:04:22.625Z,85.01
2019-01-10T01:07:26.566Z,85.22
2019-01-10T01:10:30.660Z,85.22
2019-01-10T01:13:34.600Z,85.25
2019-01-10T01:16:38.431Z,85.20
2019-01-10T01:19:42.922Z,84.98
2019-01-10T01:22:46.974Z,84.93
2019-01-10T01:25:51.288Z,84.98
2019-01-10T01:28:55.211Z,85.23
2019-01-10T01:31:59.091Z,85.94
2019-01-10T01:35:03.058Z,86.09
2019-01-10T01:38:06.990Z,86.18
2019-01-10T01:41:11.013Z,86.05
2019-01-10T01:44:14.849Z,85.83
2019-01-10T01:47:18.858Z,85.48
2019-01-10T01:50:24.514Z,85.45
2019-01-10T01:53:28.336Z,85.63
2019-01-10T01:56:32.253Z,85.58
2019-01-10T01:59:36.090Z,85.79
2019-01-10T02:02:40.022Z,86.01
2019-01-10T02:05:43.956Z,85.91
2019-01-10T02:08:47.901Z,85.66
2019-01-10T02:11:51.904Z,85.31
2019-01-10T02:14:55.748Z,85.21
2019-01-10T02:17:59.662Z,84.97
2019-01-10T02:21:03.674Z,84.65
2019-01-10T02:24:07.686Z,84.62
2019-01-10T02:27:11.629Z,84.46
2019-01-10T02:30:20.918Z,84.35
2019-01-10T02:33:24.796Z,84.74
2019-01-10T02:36:28.712Z,84.53
2019-01-10T02:39:34.324Z,84.78
2019-01-10T02:42:38.328Z,84.83
2019-01-10T02:45:42.268Z,85.00
2019-01-10T02:48:46.213Z,84.25
2019-01-10T02:51:50.202Z,84.40
2019-01-10T02:54:54.162Z,84.24
2019-01-10T02:57:58.003Z,84.29
2019-01-10T03:01:02.042Z,84.22
2019-01-10T03:04:06.278Z,84.45
2019-01-10T03:07:10.286Z,84.28
2019-01-10T03:10:15.889Z,84.33
2019-01-10T03:13:19.887Z,84.27
2019-01-10T03:16:23.736Z,84.42
2019-01-10T03:19:27.862Z,84.53
2019-01-10T03:22:31.828Z,84.57
2019-01-10T03:25:35.691Z,84.46
2019-01-10T03:28:39.873Z,84.72
2019-01-10T03:31:43.809Z,84.89
2019-01-10T03:34:47.699Z,85.03
2019-01-10T03:37:51.558Z,85.02
2019-01-10T03:40:55.489Z,84.99
2019-01-10T03:43:59.449Z,85.07
2019-01-10T03:47:03.385Z,85.14
2019-01-10T03:50:08.283Z,85.28
2019-01-10T03:53:12.151Z,85.46
2019-01-10T03:56:16.085Z,85.66
2019-01-10T03:59:19.941Z,85.79
2019-01-10T04:02:23.957Z,86.02
2019-01-10T04:05:27.871Z,86.05
2019-01-10T04:08:31.965Z,86.35
2019-01-10T04:11:36.000Z,86.37
2019-01-10T04:14:39.845Z,86.31
2019-01-10T04:17:44.043Z,86.10
2019-01-10T04:20:47.996Z,86.04
2019-01-10T04:23:54.373Z,85.85
2019-01-10T04:26:58.331Z,85.60
2019-01-10T04:30:02.274Z,85.61
2019-01-10T04:33:06.171Z,85.60
2019-01-10T04:36:10.082Z,85.61
2019-01-10T04:39:13.966Z,85.61
2019-01-10T04:42:17.967Z,85.58
2019-01-10T04:45:21.947Z,85.62
2019-01-10T04:48:25.883Z,85.41
2019-01-10T04:51:29.839Z,85.54
2019-01-10T04:54:38.222Z,85.58
2019-01-10T04:57:40.454Z,85.52
2019-01-10T05:00:44.473Z,85.68
2019-01-10T05:03:48.576Z,85.83
2019-01-10T05:06:52.415Z,86.07
2019-01-10T05:09:56.377Z,86.11
2019-01-10T05:13:00.370Z,86.20
2019-01-10T05:16:04.297Z,86.23
2019-01-10T05:19:10.043Z,86.29
2019-01-10T05:22:13.961Z,86.39
2019-01-10T05:25:17.905Z,86.50
2019-01-10T05:28:22.803Z,86.65
2019-01-10T05:31:26.680Z,86.75
2019-01-10T05:34:30.572Z,86.85
2019-01-10T05:37:34.651Z,86.92
2019-01-10T05:40:38.518Z,87.08
2019-01-10T05:43:42.359Z,87.17
2019-01-10T05:46:49.046Z,87.24
2019-01-10T05:49:53.018Z,87.40
2019-01-10T05:52:59.618Z,87.62
2019-01-10T05:56:03.648Z,87.81
2019-01-10T05:59:07.565Z,87.97
2019-01-10T06:02:11.464Z,88.14
2019-01-10T06:05:15.573Z,88.43
2019-01-10T06:08:19.558Z,88.58
2019-01-10T06:11:23.415Z,88.67
2019-01-10T06:14:35.346Z,88.70
2019-01-10T06:17:33.044Z,88.89
2019-01-10T06:20:36.943Z,89.00
2019-01-10T06:23:40.793Z,89.13
2019-01-10T06:26:45.593Z,89.33
2019-01-10T06:29:49.485Z,89.36
2019-01-10T06:32:53.492Z,89.34
2019-01-10T06:35:57.485Z,89.35
2019-01-10T06:39:01.361Z,89.37
2019-01-10T06:42:05.799Z,89.39
2019-01-10T06:45:10.999Z,89.47
2019-01-10T06:48:15.021Z,89.60
2019-01-10T06:51:18.940Z,89.50
2019-01-10T06:54:22.826Z,89.51
2019-01-10T06:57:26.676Z,89.42
2019-01-10T07:00:30.547Z,89.42
2019-01-10T07:03:34.513Z,89.41
2019-01-10T07:06:38.756Z,89.39
2019-01-10T07:09:42.708Z,89.17
2019-01-10T07:12:48.017Z,89.16
2019-01-10T07:15:51.897Z,89.16
2019-01-10T07:18:57.241Z,89.05
2019-01-10T07:22:01.315Z,89.02
2019-01-10T07:25:05.812Z,88.94
2019-01-10T07:28:25.817Z,88.83
2019-01-10T07:31:36.411Z,88.63
2019-01-10T07:34:42.259Z,88.38
2019-01-10T07:38:11.366Z,88.33
2019-01-10T07:41:15.229Z,88.39
2019-01-10T07:44:23.505Z,88.24
2019-01-10T07:47:47.346Z,88.03
2019-01-10T07:50:51.193Z,87.95
2019-01-10T07:53:55.219Z,87.91
2019-01-10T07:56:59.553Z,87.90
2019-01-10T08:00:03.684Z,87.67
2019-01-10T08:03:08.883Z,87.75
2019-01-10T08:06:13.126Z,87.77
2019-01-10T08:09:17.981Z,87.77
2019-01-10T08:12:21.851Z,87.72
2019-01-10T08:15:25.849Z,87.63
2019-01-10T08:18:29.711Z,87.58
2019-01-10T08:21:33.738Z,87.38
2019-01-10T08:24:37.662Z,86.87
2019-01-10T08:27:42.011Z,87.05
2019-01-10T08:30:45.866Z,86.86
2019-01-10T08:33:49.796Z,86.82
2019-01-10T08:36:53.669Z,86.79
2019-01-10T08:39:57.603Z,86.73
2019-01-10T08:43:04.883Z,86.72
2019-01-10T08:46:10.420Z,86.55
2019-01-10T08:49:14.280Z,86.16
2019-01-10T08:52:18.275Z,86.29
2019-01-10T08:55:22.286Z,86.20
2019-01-10T08:58:26.166Z,86.39
2019-01-10T09:01:33.120Z,86.04
2019-01-10T09:04:37.071Z,85.80
2019-01-10T09:07:41.064Z,85.59
2019-01-10T09:10:48.681Z,85.43
2019-01-10T09:13:52.654Z,85.31
2019-01-10T09:16:56.587Z,85.29
2019-01-10T09:20:01.603Z,85.16
2019-01-10T09:23:05.537Z,85.08
2019-01-10T09:26:09.706Z,84.97
2019-01-10T09:29:13.671Z,84.93
2019-01-10T09:32:17.842Z,84.94
2019-01-10T09:35:23.806Z,84.97
2019-01-10T09:38:27.728Z,85.06
2019-01-10T09:41:31.659Z,85.48
2019-01-10T09:44:35.599Z,85.52
2019-01-10T09:47:40.118Z,85.49
2019-01-10T09:50:44.077Z,85.65
2019-01-10T09:53:48.021Z,85.93
2019-01-10T09:56:52.064Z,85.91
2019-01-10T09:59:56.012Z,85.74
2019-01-10T10:03:00.010Z,85.52
2019-01-10T10:06:07.827Z,84.94
2019-01-10T10:09:15.420Z,84.74
2019-01-10T10:12:19.355Z,84.30
2019-01-10T10:15:23.756Z,82.93
2019-01-10T10:18:29.823Z,83.49
2019-01-10T10:21:34.279Z,82.88
2019-01-10T10:24:38.221Z,83.18
2019-01-10T10:27:42.283Z,83.21
2019-01-10T10:30:46.222Z,83.31
2019-01-10T10:33:51.427Z,83.67
2019-01-10T10:36:55.442Z,83.06
2019-01-10T10:39:59.360Z,82.95
2019-01-10T10:43:03.373Z,82.24
2019-01-10T10:46:07.986Z,82.43
2019-01-10T10:49:11.901Z,82.25
2019-01-10T10:52:18.872Z,82.21
2019-01-10T10:55:25.176Z,81.55
2019-01-10T10:58:29.039Z,81.25
2019-01-10T11:01:32.960Z,81.02
2019-01-10T11:04:36.886Z,81.06
2019-01-10T11:07:40.895Z,81.04
2019-01-10T11:10:44.829Z,80.86
2019-01-10T11:13:54.167Z,80.91
2019-01-10T11:17:00.449Z,80.78
2019-01-10T11:20:05.397Z,80.14
2019-01-10T11:23:10.896Z,80.22
2019-01-10T11:26:15.131Z,80.94
2019-01-10T11:29:18.970Z,81.14
2019-01-10T11:32:22.810Z,81.51
2019-01-10T11:35:27.271Z,81.30
2019-01-10T11:38:31.260Z,81.24
2019-01-10T11:41:35.178Z,81.32
2019-01-10T11:44:41.562Z,81.08
2019-01-10T11:47:45.413Z,80.61
2019-01-10T11:50:49.430Z,80.90
2019-01-10T11:53:53.426Z,80.99
2019-01-10T11:56:57.512Z,81.02
2019-01-10T12:00:01.351Z,80.63
2019-01-10T12:03:07.020Z,80.95
2019-01-10T12:06:11.051Z,81.77
2019-01-10T12:09:14.969Z,81.82
2019-01-10T12:12:18.905Z,81.38
2019-01-10T12:15:25.247Z,81.31
2019-01-10T12:18:33.835Z,81.46
2019-01-10T12:21:37.771Z,81.40
2019-01-10T12:24:41.637Z,80.91
2019-01-10T12:27:46.407Z,80.43
2019-01-10T12:30:50.454Z,80.00
2019-01-10T12:33:54.474Z,79.74
2019-01-10T12:37:00.390Z,79.44
2019-01-10T12:40:06.859Z,79.27
2019-01-10T12:43:10.420Z,79.51
2019-01-10T12:46:14.419Z,79.96
2019-01-10T12:49:18.359Z,79.79
2019-01-10T12:52:34.851Z,79.29
2019-01-10T12:55:31.834Z,79.34
2019-01-10T12:58:37.696Z,79.49
2019-01-10T13:01:41.673Z,79.27
2019-01-10T13:04:45.681Z,79.80
2019-01-10T13:07:49.687Z,80.10
2019-01-10T13:10:53.938Z,79.72
2019-01-10T13:13:59.687Z,79.88
2019-01-10T13:17:03.694Z,80.55
2019-01-10T13:20:08.958Z,80.96
2019-01-10T13:23:12.946Z,80.79
2019-01-10T13:26:16.958Z,80.99
2019-01-10T13:29:22.462Z,81.11
2019-01-10T13:32:26.479Z,80.85
2019-01-10T13:35:32.537Z,80.60
2019-01-10T13:38:36.575Z,80.40
2019-01-10T13:41:40.585Z,80.12
2019-01-10T13:44:44.579Z,79.90
2019-01-10T13:47:49.660Z,79.57
2019-01-10T13:50:53.673Z,79.47
2019-01-10T13:53:57.697Z,79.21
2019-01-10T13:57:01.626Z,79.41
2019-01-10T14:00:09.590Z,79.43
2019-01-10T14:03:13.517Z,79.72
2019-01-10T14:06:17.530Z,80.06
2019-01-10T14:09:21.528Z,80.20
2019-01-10T14:12:25.449Z,80.45
2019-01-10T14:15:31.763Z,80.36
2019-01-10T14:18:35.762Z,80.68
2019-01-10T14:21:46.588Z,80.73
2019-01-10T14:24:47.683Z,81.09
2019-01-10T14:27:59.220Z,81.26
2019-01-10T14:30:59.065Z,81.30
2019-01-10T14:34:06.576Z,81.39
2019-01-10T14:37:10.581Z,81.75
2019-01-10T14:40:16.738Z,82.03
2019-01-10T14:43:20.658Z,82.31
2019-01-10T14:46:24.678Z,82.16
2019-01-10T14:49:29.653Z,82.25
2019-01-10T14:52:33.648Z,82.51
2019-01-10T14:55:39.880Z,82.79
2019-01-10T14:58:43.885Z,82.72
2019-01-10T15:01:47.835Z,82.76
2019-01-10T15:04:51.702Z,82.84
2019-01-10T15:07:55.693Z,83.06
2019-01-10T15:10:59.563Z,83.10
2019-01-10T15:14:03.782Z,83.31
2019-01-10T15:17:13.568Z,83.70
2019-01-10T15:20:22.371Z,84.09
2019-01-10T15:23:26.313Z,84.33
2019-01-10T15:26:30.181Z,84.65
2019-01-10T15:29:34.029Z,84.82
2019-01-10T15:32:38.033Z,85.03
2019-01-10T15:35:41.880Z,85.04
2019-01-10T15:38:45.743Z,85.60
2019-01-10T15:41:49.745Z,85.85
2019-01-10T15:44:54.248Z,85.86
2019-01-10T15:47:58.205Z,85.95
2019-01-10T15:51:02.463Z,86.08
2019-01-10T15:54:06.422Z,86.30
2019-01-10T15:57:11.000Z,86.56
2019-01-10T16:00:17.718Z,86.57
2019-01-10T16:03:23.447Z,86.94
2019-01-10T16:06:27.332Z,87.23
2019-01-10T16:09:31.856Z,87.22
2019-01-10T16:12:36.073Z,87.42
2019-01-10T16:15:39.934Z,87.28
2019-01-10T16:18:43.796Z,87.36
2019-01-10T16:21:47.744Z,87.31
2019-01-10T16:24:51.679Z,87.49
2019-01-10T16:27:55.671Z,87.78
2019-01-10T16:30:59.601Z,87.81
2019-01-10T16:34:03.628Z,87.73
2019-01-10T16:37:07.546Z,87.81
2019-01-10T16:40:12.162Z,87.84
2019-01-10T16:43:18.103Z,87.78
2019-01-10T16:46:22.042Z,88.04
2019-01-10T16:49:25.980Z,88.31
2019-01-10T16:52:32.434Z,88.47
2019-01-10T16:55:36.441Z,88.58
2019-01-10T16:58:40.345Z,88.60
2019-01-10T17:01:44.282Z,88.54
2019-01-10T17:04:48.268Z,88.34
2019-01-10T17:07:52.282Z,88.46
2019-01-10T17:10:56.250Z,88.37
2019-01-10T17:14:02.245Z,88.67
2019-01-10T17:17:06.261Z,88.97
2019-01-10T17:20:12.186Z,89.35
2019-01-10T17:23:16.133Z,89.49
2019-01-10T17:26:20.171Z,89.79
2019-01-10T17:29:24.039Z,90.15
2019-01-10T17:32:28.079Z,90.52
2019-01-10T17:35:33.613Z,90.96
2019-01-10T17:38:37.547Z,91.32
2019-01-10T17:41:41.487Z,91.42
2019-01-10T17:44:45.482Z,91.98
2019-01-10T17:47:49.413Z,92.06
2019-01-10T17:50:53.379Z,92.02
2019-01-10T17:53:57.219Z,92.23
2019-01-10T17:57:01.071Z,92.80
2019-01-10T18:00:08.926Z,92.80
2019-01-10T18:03:12.827Z,92.99
2019-01-10T18:06:16.704Z,93.01
2019-01-10T18:09:20.576Z,93.16
2019-01-10T18:12:24.609Z,93.29
2019-01-10T18:15:28.609Z,93.36
2019-01-10T18:18:32.635Z,93.56
2019-01-10T18:21:36.993Z,93.86
2019-01-10T18:24:40.921Z,94.12
2019-01-10T18:27:44.863Z,94.26
2019-01-10T18:30:48.893Z,94.29
2019-01-10T18:33:52.837Z,94.54
2019-01-10T18:36:59.553Z,94.71
2019-01-10T18:40:04.568Z,94.77
2019-01-10T18:43:12.050Z,94.75
2019-01-10T18:46:16.051Z,94.71
2019-01-10T18:49:19.996Z,94.66
2019-01-10T18:52:24.012Z,94.75
2019-01-10T18:55:28.975Z,94.77
2019-01-10T18:58:32.992Z,94.87
2019-01-10T19:01:36.838Z,94.85
2019-01-10T19:04:40.750Z,94.91
2019-01-10T19:07:44.859Z,95.07
2019-01-10T19:10:48.858Z,95.07
2019-01-10T19:13:52.785Z,95.04
2019-01-10T19:16:56.765Z,95.10
2019-01-10T19:20:00.756Z,95.12
2019-01-10T19:23:05.008Z,95.10
2019-01-10T19:26:09.010Z,95.16
2019-01-10T19:29:12.872Z,95.28
2019-01-10T19:32:16.827Z,95.43
2019-01-10T19:35:20.852Z,95.45
2019-01-10T19:38:24.792Z,95.43
2019-01-10T19:41:29.531Z,95.36
2019-01-10T19:44:33.588Z,95.37
2019-01-10T19:47:37.528Z,95.12
2019-01-10T19:50:41.473Z,95.15
2019-01-10T19:53:45.489Z,95.19
2019-01-10T19:56:49.444Z,95.32
2019-01-10T19:59:53.457Z,95.24
2019-01-10T20:02:57.567Z,95.35
2019-01-10T20:06:01.631Z,95.50
2019-01-10T20:09:09.112Z,95.65
2019-01-10T20:12:33.751Z,95.54
2019-01-10T20:15:58.277Z,95.71
2019-01-10T20:19:23.424Z,95.92
2019-01-10T20:22:50.502Z,95.82
2019-01-10T20:26:15.365Z,95.73
2019-01-10T20:29:22.009Z,95.76
2019-01-10T20:32:25.927Z,95.49
2019-01-10T20:35:29.953Z,95.48
2019-01-10T20:38:34.192Z,95.78
2019-01-10T20:41:38.140Z,95.83
2019-01-10T20:44:42.204Z,95.91
2019-01-10T20:47:46.300Z,96.03
2019-01-10T20:50:51.764Z,95.99
2019-01-10T20:53:58.800Z,96.08
2019-01-10T20:57:07.886Z,96.08
2019-01-10T21:00:16.547Z,96.08
2019-01-10T21:03:20.623Z,96.07
2019-01-10T21:06:27.017Z,96.06
2019-01-10T21:09:31.044Z,96.10
2019-01-10T21:12:35.003Z,96.03
2019-01-10T21:15:41.957Z,96.08
2019-01-10T21:18:45.895Z,95.86
2019-01-10T21:21:49.823Z,95.83
2019-01-10T21:24:53.894Z,95.79
2019-01-10T21:27:58.590Z,95.66
2019-01-10T21:31:02.640Z,95.45
2019-01-10T21:34:09.450Z,95.57
2019-01-10T21:37:13.429Z,95.70
2019-01-10T21:40:19.395Z,95.82
2019-01-10T21:43:23.400Z,96.01
2019-01-10T21:46:27.304Z,96.13
2019-01-10T21:49:31.384Z,96.15
2019-01-10T21:52:35.248Z,95.99
2019-01-10T21:55:39.191Z,96.11
2019-01-10T21:58:43.113Z,96.18
2019-01-10T22:01:47.141Z,96.23
2019-01-10T22:04:52.197Z,96.14
2019-01-10T22:07:56.414Z,96.12
2019-01-10T22:11:02.157Z,96.26
2019-01-10T22:14:06.280Z,96.03
2019-01-10T22:17:10.344Z,96.34
2019-01-10T22:20:15.171Z,96.55
2019-01-10T22:23:19.167Z,96.49
2019-01-10T22:26:25.986Z,96.69
2019-01-10T22:29:29.873Z,96.91
2019-01-10T22:32:33.846Z,96.88
2019-01-10T22:35:43.442Z,96.94
2019-01-10T22:38:53.646Z,96.97
2019-01-10T22:42:03.875Z,96.91
2019-01-10T22:45:13.934Z,96.63
2019-01-10T22:48:23.966Z,96.82
2019-01-10T22:51:30.773Z,96.91
2019-01-10T22:54:34.829Z,96.99
2019-01-10T22:57:41.929Z,97.06
2019-01-10T23:01:30.683Z,97.34
2019-01-10T23:04:37.935Z,97.41
2019-01-10T23:07:44.502Z,97.62
2019-01-10T23:10:49.240Z,97.83
2019-01-10T23:14:03.657Z,98.00
2019-01-10T23:17:08.510Z,98.20
2019-01-10T23:20:12.777Z,98.40
2019-01-10T23:23:17.148Z,98.50
2019-01-10T23:26:21.006Z,98.64
2019-01-10T23:29:32.309Z,98.74
2019-01-10T23:32:36.490Z,98.84
2019-01-10T23:35:40.360Z,99.00
2019-01-10T23:39:04.773Z,99.05
2019-01-10T23:42:08.870Z,99.19
2019-01-10T23:45:12.816Z,99.22
2019-01-10T23:48:18.852Z,99.36
2019-01-10T23:51:26.601Z,99.43
2019-01-10T23:54:30.618Z,99.50
2019-01-10T23:57:34.595Z,99.58
